sensor_id;sensor_type;location;lat;lon;timestamp;pressure;altitude;pressure_sealevel;temperature;humidity
47742;BME280;33504;52.066;6.096;2023-11-19T00:00:40;100693.40;;;14.07;59.14
47742;BME280;33504;52.066;6.096;2023-11-19T00:03:06;100692.96;;;14.30;58.62
47742;BME280;33504;52.066;6.096;2023-11-19T00:05:33;100695.21;;;14.22;58.90
47742;BME280;33504;52.066;6.096;2023-11-19T00:08:01;100681.42;;;14.38;58.61
47742;BME280;33504;52.066;6.096;2023-11-19T00:10:27;100676.40;;;14.02;58.89
47742;BME280;33504;52.066;6.096;2023-11-19T00:12:54;100662.87;;;14.34;58.74
47742;BME280;33504;52.066;6.096;2023-11-19T00:15:21;100666.34;;;14.60;58.25
47742;BME280;33504;52.066;6.096;2023-11-19T00:17:48;100664.41;;;13.84;58.65
47742;BME280;33504;52.066;6.096;2023-11-19T00:20:16;100663.16;;;13.99;58.51
47742;BME280;33504;52.066;6.096;2023-11-19T00:22:44;100659.68;;;14.29;58.39
47742;BME280;33504;52.066;6.096;2023-11-19T00:25:11;100655.86;;;14.03;58.94
47742;BME280;33504;52.066;6.096;2023-11-19T00:27:38;100649.42;;;14.35;58.42
47742;BME280;33504;52.066;6.096;2023-11-19T00:30:06;100656.91;;;14.12;58.76
47742;BME280;33504;52.066;6.096;2023-11-19T00:32:34;100644.50;;;14.45;58.59
47742;BME280;33504;52.066;6.096;2023-11-19T00:35:01;100645.06;;;14.43;58.23
47742;BME280;33504;52.066;6.096;2023-11-19T00:37:28;100650.77;;;13.89;58.74
47742;BME280;33504;52.066;6.096;2023-11-19T00:39:55;100654.57;;;14.29;58.35
47742;BME280;33504;52.066;6.096;2023-11-19T00:42:22;100662.54;;;14.68;58.18
47742;BME280;33504;52.066;6.096;2023-11-19T00:44:50;100662.16;;;14.35;58.20
47742;BME280;33504;52.066;6.096;2023-11-19T00:47:17;100654.68;;;14.15;58.65
47742;BME280;33504;52.066;6.096;2023-11-19T00:49:44;100644.69;;;14.20;58.75
47742;BME280;33504;52.066;6.096;2023-11-19T00:52:11;100645.25;;;14.30;58.55
47742;BME280;33504;52.066;6.096;2023-11-19T00:54:38;100641.28;;;14.56;58.06
47742;BME280;33504;52.066;6.096;2023-11-19T00:57:05;100640.00;;;14.55;58.49
47742;BME280;33504;52.066;6.096;2023-11-19T00:59:32;100636.20;;;14.28;58.16
47742;BME280;33504;52.066;6.096;2023-11-19T01:01:59;100627.19;;;14.28;57.96
47742;BME280;33504;52.066;6.096;2023-11-19T01:04:26;100608.33;;;13.95;59.06
47742;BME280;33504;52.066;6.096;2023-11-19T01:06:53;100608.69;;;14.11;58.82
47742;BME280;33504;52.066;6.096;2023-11-19T01:09:20;100605.98;;;14.23;58.49
47742;BME280;33504;52.066;6.096;2023-11-19T01:11:47;100612.23;;;14.23;58.38
47742;BME280;33504;52.066;6.096;2023-11-19T01:14:14;100602.90;;;14.03;58.79
47742;BME280;33504;52.066;6.096;2023-11-19T01:16:40;100597.70;;;13.96;58.88
47742;BME280;33504;52.066;6.096;2023-11-19T01:19:07;100599.36;;;13.83;59.14
47742;BME280;33504;52.066;6.096;2023-11-19T01:21:34;100606.91;;;13.97;58.38
47742;BME280;33504;52.066;6.096;2023-11-19T01:24:01;100614.50;;;14.25;58.18
47742;BME280;33504;52.066;6.096;2023-11-19T01:26:29;100620.15;;;14.11;58.42
47742;BME280;33504;52.066;6.096;2023-11-19T01:28:56;100630.30;;;14.45;58.44
47742;BME280;33504;52.066;6.096;2023-11-19T01:31:23;100623.82;;;14.24;58.36
47742;BME280;33504;52.066;6.096;2023-11-19T01:33:50;100624.87;;;14.34;58.48
47742;BME280;33504;52.066;6.096;2023-11-19T01:36:16;100629.38;;;14.08;58.51
47742;BME280;33504;52.066;6.096;2023-11-19T01:38:43;100625.36;;;14.29;58.03
47742;BME280;33504;52.066;6.096;2023-11-19T01:41:10;100618.30;;;14.36;58.32
47742;BME280;33504;52.066;6.096;2023-11-19T01:43:38;100619.12;;;14.39;58.19
47742;BME280;33504;52.066;6.096;2023-11-19T01:46:05;100610.74;;;14.74;57.42
47742;BME280;33504;52.066;6.096;2023-11-19T01:48:34;100597.84;;;14.24;57.78
47742;BME280;33504;52.066;6.096;2023-11-19T01:51:01;100599.76;;;14.61;57.51
47742;BME280;33504;52.066;6.096;2023-11-19T01:53:30;100597.17;;;13.92;57.78
47742;BME280;33504;52.066;6.096;2023-11-19T01:55:58;100583.91;;;14.46;57.17
47742;BME280;33504;52.066;6.096;2023-11-19T01:58:25;100572.09;;;14.42;57.47
47742;BME280;33504;52.066;6.096;2023-11-19T02:00:53;100587.78;;;14.23;57.46
47742;BME280;33504;52.066;6.096;2023-11-19T02:03:21;100595.04;;;14.06;57.37
47742;BME280;33504;52.066;6.096;2023-11-19T02:05:49;100593.44;;;13.83;57.89
47742;BME280;33504;52.066;6.096;2023-11-19T02:08:16;100599.80;;;13.84;58.15
47742;BME280;33504;52.066;6.096;2023-11-19T02:10:44;100598.41;;;14.40;57.13
47742;BME280;33504;52.066;6.096;2023-11-19T02:13:10;100604.96;;;13.67;58.03
47742;BME280;33504;52.066;6.096;2023-11-19T02:15:37;100591.11;;;14.19;58.24
47742;BME280;33504;52.066;6.096;2023-11-19T02:18:22;100583.35;;;13.91;58.22
47742;BME280;33504;52.066;6.096;2023-11-19T02:20:49;100588.39;;;14.14;57.52
47742;BME280;33504;52.066;6.096;2023-11-19T02:23:18;100577.58;;;13.81;58.28
47742;BME280;33504;52.066;6.096;2023-11-19T02:25:56;100577.79;;;13.98;58.25
47742;BME280;33504;52.066;6.096;2023-11-19T02:28:26;100563.54;;;13.81;57.87
47742;BME280;33504;52.066;6.096;2023-11-19T02:30:53;100571.33;;;13.83;57.84
47742;BME280;33504;52.066;6.096;2023-11-19T02:33:21;100573.24;;;13.96;57.83
47742;BME280;33504;52.066;6.096;2023-11-19T02:35:48;100572.86;;;14.29;57.23
47742;BME280;33504;52.066;6.096;2023-11-19T02:38:15;100574.15;;;13.96;57.12
47742;BME280;33504;52.066;6.096;2023-11-19T02:40:42;100583.97;;;13.94;57.19
47742;BME280;33504;52.066;6.096;2023-11-19T02:43:08;100593.43;;;13.91;57.81
47742;BME280;33504;52.066;6.096;2023-11-19T02:45:35;100601.78;;;14.21;57.03
47742;BME280;33504;52.066;6.096;2023-11-19T02:48:03;100588.92;;;14.22;56.61
47742;BME280;33504;52.066;6.096;2023-11-19T02:50:29;100597.81;;;14.09;56.14
47742;BME280;33504;52.066;6.096;2023-11-19T02:52:56;100593.06;;;13.92;56.88
47742;BME280;33504;52.066;6.096;2023-11-19T02:55:24;100598.21;;;14.22;56.49
47742;BME280;33504;52.066;6.096;2023-11-19T02:57:52;100588.91;;;14.03;56.32
47742;BME280;33504;52.066;6.096;2023-11-19T03:00:20;100587.86;;;14.07;56.64
47742;BME280;33504;52.066;6.096;2023-11-19T03:02:47;100587.52;;;14.08;56.07
47742;BME280;33504;52.066;6.096;2023-11-19T03:05:14;100582.50;;;14.23;55.52
47742;BME280;33504;52.066;6.096;2023-11-19T03:07:42;100587.67;;;13.75;55.78
47742;BME280;33504;52.066;6.096;2023-11-19T03:10:09;100588.91;;;13.72;56.04
47742;BME280;33504;52.066;6.096;2023-11-19T03:12:36;100583.47;;;13.80;56.07
47742;BME280;33504;52.066;6.096;2023-11-19T03:15:04;100578.61;;;13.35;57.19
47742;BME280;33504;52.066;6.096;2023-11-19T03:17:31;100587.84;;;13.30;57.25
47742;BME280;33504;52.066;6.096;2023-11-19T03:19:58;100588.09;;;13.96;56.02
47742;BME280;33504;52.066;6.096;2023-11-19T03:22:24;100581.10;;;14.04;55.68
47742;BME280;33504;52.066;6.096;2023-11-19T03:24:52;100580.25;;;13.60;55.91
47742;BME280;33504;52.066;6.096;2023-11-19T03:27:19;100586.66;;;13.85;56.06
47742;BME280;33504;52.066;6.096;2023-11-19T03:29:46;100586.66;;;13.62;56.25
47742;BME280;33504;52.066;6.096;2023-11-19T03:32:13;100589.76;;;13.47;56.26
47742;BME280;33504;52.066;6.096;2023-11-19T03:34:40;100595.62;;;13.33;55.87
47742;BME280;33504;52.066;6.096;2023-11-19T03:37:07;100595.81;;;13.01;56.31
47742;BME280;33504;52.066;6.096;2023-11-19T03:39:35;100584.78;;;13.40;56.21
47742;BME280;33504;52.066;6.096;2023-11-19T03:42:02;100591.15;;;13.36;56.11
47742;BME280;33504;52.066;6.096;2023-11-19T03:44:29;100594.90;;;13.51;55.46
47742;BME280;33504;52.066;6.096;2023-11-19T03:46:56;100590.19;;;13.29;55.96
47742;BME280;33504;52.066;6.096;2023-11-19T03:49:23;100583.94;;;13.07;56.20
47742;BME280;33504;52.066;6.096;2023-11-19T03:51:50;100585.61;;;13.09;56.07
47742;BME280;33504;52.066;6.096;2023-11-19T03:54:17;100578.04;;;13.43;55.67
47742;BME280;33504;52.066;6.096;2023-11-19T03:56:44;100567.84;;;13.30;55.48
47742;BME280;33504;52.066;6.096;2023-11-19T03:59:11;100559.27;;;12.51;56.75
47742;BME280;33504;52.066;6.096;2023-11-19T04:01:39;100557.74;;;13.15;56.00
47742;BME280;33504;52.066;6.096;2023-11-19T04:04:05;100559.92;;;12.78;56.00
47742;BME280;33504;52.066;6.096;2023-11-19T04:06:32;100565.02;;;13.36;55.44
47742;BME280;33504;52.066;6.096;2023-11-19T04:08:59;100571.99;;;13.35;55.27
47742;BME280;33504;52.066;6.096;2023-11-19T04:11:27;100569.38;;;12.91;55.88
47742;BME280;33504;52.066;6.096;2023-11-19T04:13:54;100562.60;;;13.31;55.12
47742;BME280;33504;52.066;6.096;2023-11-19T04:16:26;100560.00;;;13.30;55.31
47742;BME280;33504;52.066;6.096;2023-11-19T04:18:53;100568.87;;;12.71;55.45
47742;BME280;33504;52.066;6.096;2023-11-19T04:21:20;100573.90;;;12.89;56.03
47742;BME280;33504;52.066;6.096;2023-11-19T04:23:47;100573.60;;;12.75;56.15
47742;BME280;33504;52.066;6.096;2023-11-19T04:26:14;100581.52;;;12.39;56.22
47742;BME280;33504;52.066;6.096;2023-11-19T04:28:41;100585.71;;;12.93;55.82
47742;BME280;33504;52.066;6.096;2023-11-19T04:31:08;100584.97;;;12.91;55.92
47742;BME280;33504;52.066;6.096;2023-11-19T04:33:35;100582.35;;;12.77;56.21
47742;BME280;33504;52.066;6.096;2023-11-19T04:36:02;100587.53;;;12.39;56.76
47742;BME280;33504;52.066;6.096;2023-11-19T04:38:29;100590.64;;;12.85;55.94
47742;BME280;33504;52.066;6.096;2023-11-19T04:40:56;100589.05;;;12.54;56.51
47742;BME280;33504;52.066;6.096;2023-11-19T04:43:23;100597.14;;;12.52;56.54
47742;BME280;33504;52.066;6.096;2023-11-19T04:45:50;100598.95;;;12.49;56.65
47742;BME280;33504;52.066;6.096;2023-11-19T04:48:17;100600.25;;;12.77;56.05
47742;BME280;33504;52.066;6.096;2023-11-19T04:50:44;100594.04;;;12.43;56.08
47742;BME280;33504;52.066;6.096;2023-11-19T04:53:12;100594.44;;;12.62;56.12
47742;BME280;33504;52.066;6.096;2023-11-19T04:55:39;100605.26;;;12.36;55.83
47742;BME280;33504;52.066;6.096;2023-11-19T04:58:06;100600.20;;;12.54;55.79
47742;BME280;33504;52.066;6.096;2023-11-19T05:00:33;100610.99;;;12.36;56.08
47742;BME280;33504;52.066;6.096;2023-11-19T05:03:00;100599.31;;;12.49;55.72
47742;BME280;33504;52.066;6.096;2023-11-19T05:05:27;100596.07;;;12.89;55.29
47742;BME280;33504;52.066;6.096;2023-11-19T05:07:55;100594.38;;;12.01;55.67
47742;BME280;33504;52.066;6.096;2023-11-19T05:10:22;100597.28;;;12.57;55.81
47742;BME280;33504;52.066;6.096;2023-11-19T05:12:48;100586.84;;;12.76;54.97
47742;BME280;33504;52.066;6.096;2023-11-19T05:15:15;100585.06;;;12.70;54.85
47742;BME280;33504;52.066;6.096;2023-11-19T05:17:42;100594.16;;;12.48;54.85
47742;BME280;33504;52.066;6.096;2023-11-19T05:20:10;100601.30;;;12.38;54.92
47742;BME280;33504;52.066;6.096;2023-11-19T05:22:37;100605.07;;;12.08;55.38
47742;BME280;33504;52.066;6.096;2023-11-19T05:25:05;100609.12;;;12.06;55.65
47742;BME280;33504;52.066;6.096;2023-11-19T05:27:32;100615.18;;;12.56;55.03
47742;BME280;33504;52.066;6.096;2023-11-19T05:29:59;100615.30;;;12.40;55.01
47742;BME280;33504;52.066;6.096;2023-11-19T05:32:26;100615.18;;;12.03;55.36
47742;BME280;33504;52.066;6.096;2023-11-19T05:34:53;100616.94;;;12.23;55.06
47742;BME280;33504;52.066;6.096;2023-11-19T05:37:21;100617.68;;;12.55;54.53
47742;BME280;33504;52.066;6.096;2023-11-19T05:39:47;100610.09;;;12.53;54.19
47742;BME280;33504;52.066;6.096;2023-11-19T05:42:14;100613.19;;;12.45;54.28
47742;BME280;33504;52.066;6.096;2023-11-19T05:44:41;100608.42;;;12.20;55.12
47742;BME280;33504;52.066;6.096;2023-11-19T05:47:08;100611.89;;;12.59;54.27
47742;BME280;33504;52.066;6.096;2023-11-19T05:49:35;100603.36;;;12.66;54.71
47742;BME280;33504;52.066;6.096;2023-11-19T05:52:02;100595.82;;;12.83;53.93
47742;BME280;33504;52.066;6.096;2023-11-19T05:54:29;100605.84;;;12.20;54.56
47742;BME280;33504;52.066;6.096;2023-11-19T05:56:56;100613.22;;;12.44;54.72
47742;BME280;33504;52.066;6.096;2023-11-19T05:59:23;100609.87;;;12.30;54.85
47742;BME280;33504;52.066;6.096;2023-11-19T06:01:50;100612.80;;;12.16;54.62
47742;BME280;33504;52.066;6.096;2023-11-19T06:04:17;100610.25;;;12.54;54.29
47742;BME280;33504;52.066;6.096;2023-11-19T06:06:44;100609.16;;;12.57;54.70
47742;BME280;33504;52.066;6.096;2023-11-19T06:09:10;100619.40;;;12.51;54.45
47742;BME280;33504;52.066;6.096;2023-11-19T06:11:38;100624.79;;;12.35;54.48
47742;BME280;33504;52.066;6.096;2023-11-19T06:14:06;100616.39;;;12.44;54.28
47742;BME280;33504;52.066;6.096;2023-11-19T06:16:33;100612.07;;;12.57;54.08
47742;BME280;33504;52.066;6.096;2023-11-19T06:19:00;100615.12;;;12.59;54.15
47742;BME280;33504;52.066;6.096;2023-11-19T06:21:27;100613.51;;;12.37;54.20
47742;BME280;33504;52.066;6.096;2023-11-19T06:23:54;100612.53;;;12.17;54.73
47742;BME280;33504;52.066;6.096;2023-11-19T06:26:21;100613.06;;;11.90;54.94
47742;BME280;33504;52.066;6.096;2023-11-19T06:28:48;100618.66;;;12.27;54.34
47742;BME280;33504;52.066;6.096;2023-11-19T06:31:15;100612.98;;;12.26;54.26
47742;BME280;33504;52.066;6.096;2023-11-19T06:33:42;100617.93;;;11.78;55.11
47742;BME280;33504;52.066;6.096;2023-11-19T06:36:09;100611.06;;;12.24;54.36
47742;BME280;33504;52.066;6.096;2023-11-19T06:38:36;100607.85;;;12.67;53.41
47742;BME280;33504;52.066;6.096;2023-11-19T06:41:08;100617.09;;;12.69;53.49
47742;BME280;33504;52.066;6.096;2023-11-19T06:43:35;100619.32;;;12.30;53.92
47742;BME280;33504;52.066;6.096;2023-11-19T06:46:01;100630.43;;;12.31;54.18
47742;BME280;33504;52.066;6.096;2023-11-19T06:48:29;100634.52;;;12.11;54.55
47742;BME280;33504;52.066;6.096;2023-11-19T06:50:56;100649.54;;;12.25;54.08
47742;BME280;33504;52.066;6.096;2023-11-19T06:53:23;100656.39;;;12.55;53.85
47742;BME280;33504;52.066;6.096;2023-11-19T06:55:50;100642.13;;;12.28;53.81
47742;BME280;33504;52.066;6.096;2023-11-19T06:58:17;100648.25;;;12.19;54.48
47742;BME280;33504;52.066;6.096;2023-11-19T07:00:44;100640.98;;;12.72;53.96
47742;BME280;33504;52.066;6.096;2023-11-19T07:03:11;100653.11;;;12.15;54.38
47742;BME280;33504;52.066;6.096;2023-11-19T07:05:38;100652.84;;;12.33;54.12
47742;BME280;33504;52.066;6.096;2023-11-19T07:08:06;100662.24;;;12.34;54.80
47742;BME280;33504;52.066;6.096;2023-11-19T07:10:33;100666.02;;;12.49;53.97
47742;BME280;33504;52.066;6.096;2023-11-19T07:13:00;100662.24;;;12.67;53.63
47742;BME280;33504;52.066;6.096;2023-11-19T07:15:28;100657.02;;;12.86;53.16
47742;BME280;33504;52.066;6.096;2023-11-19T07:17:55;100668.94;;;12.48;53.82
47742;BME280;33504;52.066;6.096;2023-11-19T07:20:22;100670.06;;;12.55;53.68
47742;BME280;33504;52.066;6.096;2023-11-19T07:22:49;100666.97;;;12.18;53.86
47742;BME280;33504;52.066;6.096;2023-11-19T07:25:16;100672.87;;;12.37;53.59
47742;BME280;33504;52.066;6.096;2023-11-19T07:27:42;100668.31;;;12.66;53.65
47742;BME280;33504;52.066;6.096;2023-11-19T07:30:10;100662.79;;;12.39;54.03
47742;BME280;33504;52.066;6.096;2023-11-19T07:32:37;100681.25;;;12.29;53.82
47742;BME280;33504;52.066;6.096;2023-11-19T07:35:05;100684.16;;;12.55;53.78
47742;BME280;33504;52.066;6.096;2023-11-19T07:37:33;100690.48;;;12.29;54.20
47742;BME280;33504;52.066;6.096;2023-11-19T07:40:00;100691.45;;;12.54;53.63
47742;BME280;33504;52.066;6.096;2023-11-19T07:42:27;100693.15;;;12.44;53.91
47742;BME280;33504;52.066;6.096;2023-11-19T07:44:54;100689.75;;;12.52;53.67
47742;BME280;33504;52.066;6.096;2023-11-19T07:47:22;100704.72;;;12.82;53.68
47742;BME280;33504;52.066;6.096;2023-11-19T07:49:50;100696.92;;;12.61;53.49
47742;BME280;33504;52.066;6.096;2023-11-19T07:52:17;100705.29;;;12.35;54.12
47742;BME280;33504;52.066;6.096;2023-11-19T07:54:44;100707.66;;;12.50;53.82
47742;BME280;33504;52.066;6.096;2023-11-19T07:57:11;100699.99;;;12.68;53.55
47742;BME280;33504;52.066;6.096;2023-11-19T07:59:38;100705.07;;;12.93;53.09
47742;BME280;33504;52.066;6.096;2023-11-19T08:02:04;100718.13;;;13.12;52.70
47742;BME280;33504;52.066;6.096;2023-11-19T08:04:32;100708.48;;;12.68;52.82
47742;BME280;33504;52.066;6.096;2023-11-19T08:06:58;100715.21;;;12.79;52.23
47742;BME280;33504;52.066;6.096;2023-11-19T08:09:25;100714.23;;;12.87;52.41
47742;BME280;33504;52.066;6.096;2023-11-19T08:11:52;100714.65;;;13.18;52.36
47742;BME280;33504;52.066;6.096;2023-11-19T08:14:19;100714.96;;;13.01;52.09
47742;BME280;33504;52.066;6.096;2023-11-19T08:16:46;100718.29;;;12.93;52.23
47742;BME280;33504;52.066;6.096;2023-11-19T08:19:13;100710.01;;;13.10;52.50
47742;BME280;33504;52.066;6.096;2023-11-19T08:21:40;100714.83;;;13.18;51.94
47742;BME280;33504;52.066;6.096;2023-11-19T08:24:07;100714.31;;;12.87;51.96
47742;BME280;33504;52.066;6.096;2023-11-19T08:26:35;100708.94;;;12.94;51.82
47742;BME280;33504;52.066;6.096;2023-11-19T08:29:02;100708.06;;;13.41;51.46
47742;BME280;33504;52.066;6.096;2023-11-19T08:31:29;100713.36;;;13.14;51.69
47742;BME280;33504;52.066;6.096;2023-11-19T08:33:56;100708.52;;;13.07;52.16
47742;BME280;33504;52.066;6.096;2023-11-19T08:36:23;100712.47;;;12.92;52.11
47742;BME280;33504;52.066;6.096;2023-11-19T08:38:50;100711.95;;;13.04;52.02
47742;BME280;33504;52.066;6.096;2023-11-19T08:41:17;100705.76;;;13.09;52.02
47742;BME280;33504;52.066;6.096;2023-11-19T08:43:44;100697.08;;;13.10;51.77
47742;BME280;33504;52.066;6.096;2023-11-19T08:46:11;100702.44;;;13.37;51.59
47742;BME280;33504;52.066;6.096;2023-11-19T08:48:38;100701.58;;;13.38;51.63
47742;BME280;33504;52.066;6.096;2023-11-19T08:51:05;100694.08;;;13.05;51.85
47742;BME280;33504;52.066;6.096;2023-11-19T08:53:32;100699.75;;;13.01;52.07
47742;BME280;33504;52.066;6.096;2023-11-19T08:55:59;100705.24;;;13.02;51.59
47742;BME280;33504;52.066;6.096;2023-11-19T08:58:27;100710.69;;;13.19;51.56
47742;BME280;33504;52.066;6.096;2023-11-19T09:00:54;100704.85;;;13.30;51.49
47742;BME280;33504;52.066;6.096;2023-11-19T09:03:21;100711.33;;;13.76;51.34
47742;BME280;33504;52.066;6.096;2023-11-19T09:05:49;100705.06;;;13.28;51.08
47742;BME280;33504;52.066;6.096;2023-11-19T09:08:16;100705.91;;;13.15;51.46
47742;BME280;33504;52.066;6.096;2023-11-19T09:10:43;100702.07;;;13.45;51.12
47742;BME280;33504;52.066;6.096;2023-11-19T09:13:10;100704.20;;;13.50;50.69
47742;BME280;33504;52.066;6.096;2023-11-19T09:15:37;100709.53;;;13.89;50.06
47742;BME280;33504;52.066;6.096;2023-11-19T09:18:05;100711.47;;;13.26;50.64
47742;BME280;33504;52.066;6.096;2023-11-19T09:20:31;100722.75;;;13.46;50.15
47742;BME280;33504;52.066;6.096;2023-11-19T09:22:58;100711.25;;;13.58;50.04
47742;BME280;33504;52.066;6.096;2023-11-19T09:25:25;100717.47;;;13.34;50.38
47742;BME280;33504;52.066;6.096;2023-11-19T09:27:52;100709.62;;;13.57;50.26
47742;BME280;33504;52.066;6.096;2023-11-19T09:30:19;100710.14;;;13.17;50.59
47742;BME280;33504;52.066;6.096;2023-11-19T09:32:46;100712.20;;;13.08;50.91
47742;BME280;33504;52.066;6.096;2023-11-19T09:35:13;100712.11;;;13.31;50.84
47742;BME280;33504;52.066;6.096;2023-11-19T09:37:41;100731.07;;;13.63;50.27
47742;BME280;33504;52.066;6.096;2023-11-19T09:40:08;100721.99;;;13.99;50.09
47742;BME280;33504;52.066;6.096;2023-11-19T09:42:44;100714.13;;;13.33;50.28
47742;BME280;33504;52.066;6.096;2023-11-19T09:45:14;100711.63;;;13.41;50.10
47742;BME280;33504;52.066;6.096;2023-11-19T09:47:44;100708.68;;;13.41;50.12
47742;BME280;33504;52.066;6.096;2023-11-19T09:50:15;100723.86;;;13.86;50.22
47742;BME280;33504;52.066;6.096;2023-11-19T09:52:43;100710.22;;;14.03;49.43
47742;BME280;33504;52.066;6.096;2023-11-19T09:55:11;100710.42;;;14.26;49.11
47742;BME280;33504;52.066;6.096;2023-11-19T09:57:39;100703.35;;;14.69;48.91
47742;BME280;33504;52.066;6.096;2023-11-19T10:00:07;100699.21;;;14.37;48.60
47742;BME280;33504;52.066;6.096;2023-11-19T10:02:34;100708.82;;;14.35;48.16
47742;BME280;33504;52.066;6.096;2023-11-19T10:05:04;100696.11;;;14.12;48.85
47742;BME280;33504;52.066;6.096;2023-11-19T10:07:32;100698.43;;;13.96;49.32
47742;BME280;33504;52.066;6.096;2023-11-19T10:10:00;100698.57;;;13.99;49.43
47742;BME280;33504;52.066;6.096;2023-11-19T10:12:27;100700.15;;;14.60;48.88
47742;BME280;33504;52.066;6.096;2023-11-19T10:14:57;100696.70;;;14.78;48.12
47742;BME280;33504;52.066;6.096;2023-11-19T10:17:28;100696.96;;;15.18;46.81
47742;BME280;33504;52.066;6.096;2023-11-19T10:19:55;100698.22;;;14.88;47.57
47742;BME280;33504;52.066;6.096;2023-11-19T10:22:22;100697.17;;;15.09;46.55
47742;BME280;33504;52.066;6.096;2023-11-19T10:24:50;100692.26;;;14.70;47.32
47742;BME280;33504;52.066;6.096;2023-11-19T10:27:17;100694.66;;;14.79;47.47
47742;BME280;33504;52.066;6.096;2023-11-19T10:29:45;100696.41;;;14.69;47.49
47742;BME280;33504;52.066;6.096;2023-11-19T10:32:12;100698.33;;;14.39;48.15
47742;BME280;33504;52.066;6.096;2023-11-19T10:34:39;100709.04;;;14.70;47.50
47742;BME280;33504;52.066;6.096;2023-11-19T10:37:06;100696.60;;;14.39;47.80
47742;BME280;33504;52.066;6.096;2023-11-19T10:39:52;100706.15;;;14.76;47.99
47742;BME280;33504;52.066;6.096;2023-11-19T10:42:19;100691.50;;;13.93;48.14
47742;BME280;33504;52.066;6.096;2023-11-19T10:44:46;100698.04;;;14.46;48.23
47742;BME280;33504;52.066;6.096;2023-11-19T10:47:14;100697.63;;;14.12;48.57
47742;BME280;33504;52.066;6.096;2023-11-19T10:49:41;100693.80;;;14.32;48.06
47742;BME280;33504;52.066;6.096;2023-11-19T10:52:09;100690.74;;;14.45;47.51
47742;BME280;33504;52.066;6.096;2023-11-19T10:54:37;100691.23;;;14.85;47.56
47742;BME280;33504;52.066;6.096;2023-11-19T10:57:09;100678.20;;;14.31;47.81
47742;BME280;33504;52.066;6.096;2023-11-19T10:59:39;100682.51;;;14.26;47.55
47742;BME280;33504;52.066;6.096;2023-11-19T11:02:10;100679.66;;;14.80;47.78
47742;BME280;33504;52.066;6.096;2023-11-19T11:04:41;100675.76;;;14.83;47.07
47742;BME280;33504;52.066;6.096;2023-11-19T11:07:09;100676.60;;;15.03;47.02
47742;BME280;33504;52.066;6.096;2023-11-19T11:09:36;100674.30;;;15.48;45.82
47742;BME280;33504;52.066;6.096;2023-11-19T11:12:06;100666.71;;;15.83;45.42
47742;BME280;33504;52.066;6.096;2023-11-19T11:14:34;100677.80;;;15.85;45.50
47742;BME280;33504;52.066;6.096;2023-11-19T11:17:04;100675.24;;;15.55;45.26
47742;BME280;33504;52.066;6.096;2023-11-19T11:19:32;100675.60;;;15.53;44.93
47742;BME280;33504;52.066;6.096;2023-11-19T11:22:01;100667.54;;;15.17;45.87
47742;BME280;33504;52.066;6.096;2023-11-19T11:24:40;100678.66;;;15.10;45.81
47742;BME280;33504;52.066;6.096;2023-11-19T11:27:27;100679.99;;;15.09;45.84
47742;BME280;33504;52.066;6.096;2023-11-19T11:30:05;100666.65;;;14.57;46.47
47742;BME280;33504;52.066;6.096;2023-11-19T11:32:42;100674.16;;;14.91;45.90
47742;BME280;33504;52.066;6.096;2023-11-19T11:35:22;100668.91;;;14.71;46.42
47742;BME280;33504;52.066;6.096;2023-11-19T11:38:00;100670.26;;;14.38;46.74
47742;BME280;33504;52.066;6.096;2023-11-19T11:40:27;100666.00;;;14.59;46.23
47742;BME280;33504;52.066;6.096;2023-11-19T11:42:54;100664.25;;;13.88;47.36
47742;BME280;33504;52.066;6.096;2023-11-19T11:45:35;100664.64;;;14.62;46.12
47742;BME280;33504;52.066;6.096;2023-11-19T11:48:11;100662.61;;;14.80;46.00
47742;BME280;33504;52.066;6.096;2023-11-19T11:50:57;100654.28;;;14.80;45.99
47742;BME280;33504;52.066;6.096;2023-11-19T11:53:25;100653.32;;;14.69;46.36
47742;BME280;33504;52.066;6.096;2023-11-19T11:55:54;100655.00;;;14.76;46.20
47742;BME280;33504;52.066;6.096;2023-11-19T11:58:27;100653.70;;;13.76;47.78
47742;BME280;33504;52.066;6.096;2023-11-19T12:00:58;100641.50;;;14.29;47.60
47742;BME280;33504;52.066;6.096;2023-11-19T12:03:28;100650.16;;;14.49;47.24
47742;BME280;33504;52.066;6.096;2023-11-19T12:05:56;100637.69;;;14.20;47.27
47742;BME280;33504;52.066;6.096;2023-11-19T12:08:26;100637.22;;;14.28;46.74
47742;BME280;33504;52.066;6.096;2023-11-19T12:10:55;100628.52;;;14.42;47.94
47742;BME280;33504;52.066;6.096;2023-11-19T12:13:23;100624.46;;;14.36;47.98
47742;BME280;33504;52.066;6.096;2023-11-19T12:16:23;100634.79;;;15.19;47.92
47742;BME280;33504;52.066;6.096;2023-11-19T12:18:50;100622.22;;;14.33;48.71
47742;BME280;33504;52.066;6.096;2023-11-19T12:21:33;100620.70;;;14.35;47.82
47742;BME280;33504;52.066;6.096;2023-11-19T12:24:02;100628.28;;;14.39;47.52
47742;BME280;33504;52.066;6.096;2023-11-19T12:26:35;100630.56;;;14.26;47.19
47742;BME280;33504;52.066;6.096;2023-11-19T12:29:03;100632.42;;;14.96;46.38
47742;BME280;33504;52.066;6.096;2023-11-19T12:31:30;100627.31;;;14.33;47.55
47742;BME280;33504;52.066;6.096;2023-11-19T12:33:57;100637.51;;;14.60;47.51
47742;BME280;33504;52.066;6.096;2023-11-19T12:36:24;100632.73;;;14.54;47.24
47742;BME280;33504;52.066;6.096;2023-11-19T12:38:52;100638.30;;;14.21;47.18
47742;BME280;33504;52.066;6.096;2023-11-19T12:41:19;100632.99;;;14.33;46.62
47742;BME280;33504;52.066;6.096;2023-11-19T12:43:46;100634.34;;;14.52;46.52
47742;BME280;33504;52.066;6.096;2023-11-19T12:46:20;100630.67;;;15.45;45.55
47742;BME280;33504;52.066;6.096;2023-11-19T12:48:48;100637.73;;;14.60;46.09
47742;BME280;33504;52.066;6.096;2023-11-19T12:51:16;100646.53;;;14.56;46.42
47742;BME280;33504;52.066;6.096;2023-11-19T12:53:51;100634.77;;;14.97;46.12